Time;durP1;ratioP1;P1;durP2;ratioP2;P2;SDS_P1;SDS_P2;PMS_P1;PMS_P2;Temp;Humidity;BMP_temperature;BMP_pressure;BME280_temperature;BME280_humidity;BME280_pressure;Samples;Min_cycle;Max_cycle;Signal;HPM_P1;HPM_P2
2023/07/29 00:00:49;;;;;;;5.13;3.20;;;;;;;;;;5049901;28;20155;-68
2023/07/29 00:03:16;;;;;;;6.03;3.95;;;;;;;;;;5046568;28;20044;-68
2023/07/29 00:05:42;;;;;;;6.13;3.90;;;;;;;;;;5044587;28;20571;-68
2023/07/29 00:08:08;;;;;;;5.22;3.47;;;;;;;;;;5044849;28;20053;-68
2023/07/29 00:10:36;;;;;;;5.28;3.85;;;;;;;;;;5048121;28;20482;-68
2023/07/29 00:13:03;;;;;;;4.65;2.97;;;;;;;;;;5047867;28;20078;-68
2023/07/29 00:15:29;;;;;;;4.70;3.28;;;;;;;;;;5048687;28;20469;-68
2023/07/29 00:17:55;;;;;;;6.22;3.65;;;;;;;;;;5041392;28;20083;-68
2023/07/29 00:20:21;;;;;;;6.28;3.13;;;;;;;;;;5044999;28;20064;-68
2023/07/29 00:22:49;;;;;;;6.93;3.88;;;;;;;;;;5049146;28;20052;-68
2023/07/29 00:25:16;;;;;;;4.97;3.30;;;;;;;;;;5048864;28;20041;-68
2023/07/29 00:27:43;;;;;;;5.45;2.97;;;;;;;;;;5048859;28;20102;-68
2023/07/29 00:30:09;;;;;;;6.35;3.42;;;;;;;;;;5055029;28;20033;-68
2023/07/29 00:32:36;;;;;;;4.65;3.53;;;;;;;;;;5054892;28;20080;-67
2023/07/29 00:35:02;;;;;;;4.72;2.88;;;;;;;;;;5052456;28;20078;-67
2023/07/29 00:37:28;;;;;;;7.55;3.67;;;;;;;;;;5061445;28;20286;-68
2023/07/29 00:39:55;;;;;;;5.93;3.92;;;;;;;;;;5060083;28;20037;-68
2023/07/29 00:42:21;;;;;;;6.38;3.47;;;;;;;;;;5053088;28;20040;-67
2023/07/29 00:44:47;;;;;;;6.85;3.47;;;;;;;;;;5044879;28;20046;-68
2023/07/29 00:47:15;;;;;;;8.88;3.60;;;;;;;;;;5036651;28;20048;-68
2023/07/29 00:49:42;;;;;;;4.00;2.80;;;;;;;;;;5054849;28;20139;-67
2023/07/29 00:52:11;;;;;;;5.05;2.85;;;;;;;;;;5046607;28;20384;-68
2023/07/29 00:54:37;;;;;;;5.18;2.30;;;;;;;;;;5051451;28;20068;-68
2023/07/29 00:57:03;;;;;;;5.40;3.33;;;;;;;;;;5042860;28;20375;-68
2023/07/29 00:59:30;;;;;;;5.88;3.15;;;;;;;;;;5047035;28;20048;-68
2023/07/29 01:01:56;;;;;;;7.55;3.10;;;;;;;;;;5048847;28;20064;-68
2023/07/29 01:04:22;;;;;;;6.03;3.45;;;;;;;;;;5055427;28;20089;-68
2023/07/29 01:06:48;;;;;;;6.85;3.42;;;;;;;;;;5051902;28;20037;-67
2023/07/29 01:09:18;;;;;;;6.63;3.45;;;;;;;;;;5054327;28;20071;-68
2023/07/29 01:11:53;;;;;;;3.83;2.80;;;;;;;;;;5051348;28;20056;-68
2023/07/29 01:14:30;;;;;;;6.30;3.45;;;;;;;;;;5048506;28;20045;-68
2023/07/29 01:16:59;;;;;;;5.57;3.65;;;;;;;;;;5050217;28;20056;-68
2023/07/29 01:19:25;;;;;;;6.72;4.20;;;;;;;;;;5051606;28;20545;-67
2023/07/29 01:21:52;;;;;;;7.43;3.97;;;;;;;;;;5052497;28;20059;-67
2023/07/29 01:24:18;;;;;;;8.48;4.32;;;;;;;;;;5052462;28;20423;-67
2023/07/29 01:26:44;;;;;;;10.90;6.30;;;;;;;;;;5057776;28;20179;-68
2023/07/29 01:29:10;;;;;;;9.77;4.68;;;;;;;;;;5045660;28;20089;-68
2023/07/29 01:31:40;;;;;;;6.47;4.85;;;;;;;;;;5049488;28;20033;-68
2023/07/29 01:34:10;;;;;;;7.65;5.15;;;;;;;;;;5050131;28;20384;-68
2023/07/29 01:36:40;;;;;;;6.97;4.72;;;;;;;;;;5051987;28;20436;-68
2023/07/29 01:39:08;;;;;;;7.47;5.43;;;;;;;;;;5043254;28;20045;-67
2023/07/29 01:41:35;;;;;;;7.78;5.35;;;;;;;;;;5050128;28;20043;-67
2023/07/29 01:44:01;;;;;;;8.25;5.97;;;;;;;;;;5048894;28;20405;-67
2023/07/29 01:46:27;;;;;;;7.47;5.40;;;;;;;;;;5043082;28;20569;-67
2023/07/29 01:48:54;;;;;;;9.23;5.80;;;;;;;;;;5045982;28;20279;-67
2023/07/29 01:51:21;;;;;;;6.78;5.53;;;;;;;;;;5028256;28;20222;-67
2023/07/29 01:53:47;;;;;;;9.20;5.15;;;;;;;;;;5048525;28;20059;-67
2023/07/29 01:56:13;;;;;;;8.15;5.40;;;;;;;;;;5040447;28;20653;-68
2023/07/29 01:58:39;;;;;;;10.45;5.18;;;;;;;;;;5049380;28;20290;-67
2023/07/29 02:01:05;;;;;;;6.18;3.83;;;;;;;;;;5053198;28;20052;-68
2023/07/29 02:03:31;;;;;;;6.15;4.13;;;;;;;;;;5050483;28;20071;-67
2023/07/29 02:05:57;;;;;;;6.70;4.60;;;;;;;;;;5050939;28;20064;-67
2023/07/29 02:08:24;;;;;;;9.48;4.70;;;;;;;;;;5050285;28;20041;-67
2023/07/29 02:10:50;;;;;;;6.10;3.88;;;;;;;;;;5046633;28;20115;-67
2023/07/29 02:13:16;;;;;;;10.75;4.07;;;;;;;;;;5051439;28;20483;-67
2023/07/29 02:15:42;;;;;;;6.05;3.60;;;;;;;;;;5049872;28;20053;-68
2023/07/29 02:18:08;;;;;;;6.30;4.50;;;;;;;;;;5053592;28;20076;-67
2023/07/29 02:20:34;;;;;;;8.18;4.47;;;;;;;;;;5047424;28;20132;-68
2023/07/29 02:23:00;;;;;;;6.95;5.25;;;;;;;;;;5048902;28;20537;-67
2023/07/29 02:25:26;;;;;;;5.35;3.92;;;;;;;;;;5045654;28;20102;-67
2023/07/29 02:27:53;;;;;;;6.88;4.05;;;;;;;;;;5051892;28;20041;-67
2023/07/29 02:30:19;;;;;;;7.45;4.85;;;;;;;;;;5053646;28;20444;-67
2023/07/29 02:32:45;;;;;;;5.97;4.03;;;;;;;;;;5053437;28;20048;-68
2023/07/29 02:35:12;;;;;;;5.55;4.03;;;;;;;;;;5043250;28;20045;-67
2023/07/29 02:37:39;;;;;;;10.10;5.05;;;;;;;;;;5051658;28;20106;-67
2023/07/29 02:40:05;;;;;;;8.27;5.43;;;;;;;;;;5052293;28;20053;-67
2023/07/29 02:42:32;;;;;;;8.18;5.93;;;;;;;;;;5046096;28;20051;-67
2023/07/29 02:44:58;;;;;;;10.93;5.72;;;;;;;;;;5040153;28;20128;-67
2023/07/29 02:47:24;;;;;;;8.57;5.63;;;;;;;;;;5050346;28;20116;-67
2023/07/29 02:49:51;;;;;;;11.77;5.07;;;;;;;;;;5051378;28;20056;-68
2023/07/29 02:52:17;;;;;;;7.90;6.05;;;;;;;;;;5052552;28;20048;-68
2023/07/29 02:54:43;;;;;;;6.82;5.03;;;;;;;;;;5053204;28;20486;-67
2023/07/29 02:57:09;;;;;;;11.25;6.05;;;;;;;;;;5028857;28;20134;-67
2023/07/29 02:59:35;;;;;;;6.88;5.43;;;;;;;;;;5039527;28;20032;-67
2023/07/29 03:02:02;;;;;;;7.35;5.13;;;;;;;;;;5039500;28;20037;-67
2023/07/29 03:04:28;;;;;;;7.78;4.43;;;;;;;;;;5025515;28;20055;-67
2023/07/29 03:06:54;;;;;;;7.97;4.68;;;;;;;;;;5024423;28;20052;-68
2023/07/29 03:09:20;;;;;;;8.30;4.97;;;;;;;;;;5052723;28;20332;-67
2023/07/29 03:11:46;;;;;;;9.65;4.45;;;;;;;;;;5045399;28;20491;-68
2023/07/29 03:14:12;;;;;;;7.55;4.55;;;;;;;;;;5052409;28;20140;-68
2023/07/29 03:16:38;;;;;;;5.95;4.18;;;;;;;;;;5043769;28;20574;-68
2023/07/29 03:19:06;;;;;;;13.32;4.25;;;;;;;;;;5048820;28;20056;-68
2023/07/29 03:21:32;;;;;;;6.35;3.40;;;;;;;;;;5047986;28;20043;-67
2023/07/29 03:23:58;;;;;;;5.63;3.00;;;;;;;;;;5044343;28;20068;-67
2023/07/29 03:26:25;;;;;;;6.82;3.50;;;;;;;;;;5048898;28;20095;-67
2023/07/29 03:28:51;;;;;;;4.53;3.42;;;;;;;;;;5025893;28;20048;-68
2023/07/29 03:31:17;;;;;;;7.10;3.20;;;;;;;;;;5045117;28;20119;-67
2023/07/29 03:33:43;;;;;;;6.22;3.40;;;;;;;;;;5044867;28;20040;-68
2023/07/29 03:36:09;;;;;;;5.60;3.15;;;;;;;;;;5059032;28;20040;-68
2023/07/29 03:38:39;;;;;;;6.70;2.63;;;;;;;;;;5052560;28;20072;-68
2023/07/29 03:41:05;;;;;;;4.13;3.00;;;;;;;;;;5030981;28;20049;-68
2023/07/29 03:43:32;;;;;;;5.63;2.28;;;;;;;;;;5052803;28;20043;-68
2023/07/29 03:45:58;;;;;;;8.25;3.55;;;;;;;;;;5043863;28;20112;-68
2023/07/29 03:48:24;;;;;;;5.97;2.10;;;;;;;;;;5051786;28;20506;-67
2023/07/29 03:50:50;;;;;;;7.15;3.05;;;;;;;;;;5047462;28;20045;-68
2023/07/29 03:53:16;;;;;;;9.20;2.45;;;;;;;;;;5027565;28;20079;-68
2023/07/29 03:55:43;;;;;;;6.20;2.20;;;;;;;;;;5047193;28;20067;-68
2023/07/29 03:58:09;;;;;;;4.53;2.20;;;;;;;;;;5047672;28;20036;-68
2023/07/29 04:00:35;;;;;;;5.90;2.58;;;;;;;;;;5046624;28;20036;-67
2023/07/29 04:03:01;;;;;;;5.60;2.55;;;;;;;;;;5050735;28;20551;-68
2023/07/29 04:05:27;;;;;;;4.22;2.20;;;;;;;;;;5046701;28;20080;-68
2023/07/29 04:07:54;;;;;;;3.53;1.83;;;;;;;;;;5048769;28;20041;-68
2023/07/29 04:10:20;;;;;;;9.80;3.33;;;;;;;;;;5044480;28;20549;-67
2023/07/29 04:12:46;;;;;;;5.18;2.38;;;;;;;;;;5047597;28;20114;-68
2023/07/29 04:15:12;;;;;;;4.22;2.03;;;;;;;;;;5044235;28;20083;-67
2023/07/29 04:17:39;;;;;;;7.35;2.53;;;;;;;;;;5051832;28;20119;-67
2023/07/29 04:20:05;;;;;;;4.18;1.98;;;;;;;;;;5030020;28;20056;-67
2023/07/29 04:22:31;;;;;;;8.43;2.85;;;;;;;;;;5049535;28;20501;-68
2023/07/29 04:24:57;;;;;;;4.35;2.53;;;;;;;;;;5027441;28;20040;-68
2023/07/29 04:27:24;;;;;;;6.10;2.88;;;;;;;;;;5045218;28;20037;-67
2023/07/29 04:29:50;;;;;;;6.00;2.30;;;;;;;;;;5045259;28;20124;-68
2023/07/29 04:32:16;;;;;;;4.40;2.00;;;;;;;;;;5048865;28;20099;-67
2023/07/29 04:34:42;;;;;;;6.35;2.90;;;;;;;;;;5043226;28;20052;-68
2023/07/29 04:37:08;;;;;;;6.13;2.05;;;;;;;;;;5050898;28;20075;-68
2023/07/29 04:39:34;;;;;;;3.63;2.08;;;;;;;;;;5049624;28;20032;-67
2023/07/29 04:42:01;;;;;;;5.40;2.83;;;;;;;;;;5047983;28;20040;-68
2023/07/29 04:44:27;;;;;;;7.68;2.47;;;;;;;;;;5041743;28;20762;-68
2023/07/29 04:46:53;;;;;;;4.57;2.35;;;;;;;;;;5046519;28;20049;-68
2023/07/29 04:49:19;;;;;;;4.07;1.98;;;;;;;;;;5043241;28;20045;-68
2023/07/29 04:51:45;;;;;;;5.38;2.33;;;;;;;;;;5044844;28;20494;-68
2023/07/29 04:54:12;;;;;;;7.07;2.13;;;;;;;;;;5042502;28;20110;-68
2023/07/29 04:56:38;;;;;;;5.05;2.38;;;;;;;;;;5046074;28;20045;-68
2023/07/29 04:59:04;;;;;;;14.10;2.45;;;;;;;;;;5023315;28;20048;-67
2023/07/29 05:01:30;;;;;;;6.05;2.88;;;;;;;;;;5043156;28;20040;-68
2023/07/29 05:03:56;;;;;;;6.75;2.20;;;;;;;;;;5047485;28;20052;-67
2023/07/29 05:06:22;;;;;;;5.28;2.35;;;;;;;;;;5043412;28;20521;-68
2023/07/29 05:08:49;;;;;;;4.80;2.33;;;;;;;;;;5049108;28;20040;-68
2023/07/29 05:11:15;;;;;;;4.68;2.75;;;;;;;;;;5046492;28;20053;-67
2023/07/29 05:13:43;;;;;;;3.92;2.40;;;;;;;;;;5044810;28;20041;-68
2023/07/29 05:16:10;;;;;;;6.30;2.60;;;;;;;;;;5046950;28;20272;-68
2023/07/29 05:18:36;;;;;;;7.20;2.33;;;;;;;;;;5045556;28;20135;-68
2023/07/29 05:21:02;;;;;;;5.72;2.60;;;;;;;;;;5042065;28;20093;-68
2023/07/29 05:23:28;;;;;;;6.63;2.75;;;;;;;;;;5047583;28;20521;-67
2023/07/29 05:25:54;;;;;;;6.63;2.60;;;;;;;;;;5012502;28;20086;-68
2023/07/29 05:28:20;;;;;;;5.13;2.10;;;;;;;;;;5034479;28;20044;-67
2023/07/29 05:30:46;;;;;;;5.80;2.30;;;;;;;;;;5045999;28;20374;-68
2023/07/29 05:33:12;;;;;;;9.30;3.17;;;;;;;;;;5045666;28;20091;-68
2023/07/29 05:35:39;;;;;;;4.82;2.22;;;;;;;;;;5054291;28;20640;-67
2023/07/29 05:38:08;;;;;;;7.13;2.63;;;;;;;;;;5041075;28;20378;-67
2023/07/29 05:40:34;;;;;;;4.05;2.22;;;;;;;;;;5046743;28;20077;-68
2023/07/29 05:43:00;;;;;;;4.40;2.50;;;;;;;;;;5050999;28;20032;-68
2023/07/29 05:45:26;;;;;;;6.38;2.75;;;;;;;;;;5019625;28;20040;-68
2023/07/29 05:47:54;;;;;;;5.20;2.28;;;;;;;;;;5051226;28;20370;-68
2023/07/29 05:50:20;;;;;;;6.70;2.60;;;;;;;;;;5048814;28;20048;-68
2023/07/29 05:52:46;;;;;;;5.60;2.30;;;;;;;;;;5029572;28;20044;-68
2023/07/29 05:55:12;;;;;;;7.53;2.83;;;;;;;;;;5043096;28;20470;-68
2023/07/29 05:57:38;;;;;;;6.55;3.20;;;;;;;;;;5043308;28;20041;-67
2023/07/29 06:00:04;;;;;;;6.90;2.45;;;;;;;;;;5028886;28;20495;-68
2023/07/29 06:02:31;;;;;;;6.80;2.63;;;;;;;;;;5041495;28;20056;-68
2023/07/29 06:04:57;;;;;;;4.97;2.60;;;;;;;;;;5037340;28;20211;-68
2023/07/29 06:07:23;;;;;;;8.52;3.95;;;;;;;;;;5047715;28;20134;-67
2023/07/29 06:09:49;;;;;;;9.40;3.47;;;;;;;;;;5044416;28;20045;-68
2023/07/29 06:12:16;;;;;;;7.97;3.50;;;;;;;;;;5039076;28;20060;-67
2023/07/29 06:14:42;;;;;;;6.25;3.08;;;;;;;;;;5021976;28;20407;-67
2023/07/29 06:17:11;;;;;;;6.70;3.35;;;;;;;;;;5030142;28;20101;-67
2023/07/29 06:19:38;;;;;;;10.52;3.78;;;;;;;;;;5039622;28;20048;-67
2023/07/29 06:22:05;;;;;;;9.20;3.45;;;;;;;;;;5046143;28;20508;-68
2023/07/29 06:24:32;;;;;;;7.70;3.35;;;;;;;;;;5046690;28;20048;-67
2023/07/29 06:26:58;;;;;;;5.10;2.78;;;;;;;;;;5052530;28;20043;-67
2023/07/29 06:29:24;;;;;;;11.80;3.60;;;;;;;;;;5039017;28;20155;-67
2023/07/29 06:31:51;;;;;;;10.55;4.03;;;;;;;;;;5031921;28;20048;-68
2023/07/29 06:34:17;;;;;;;5.07;2.90;;;;;;;;;;5046538;28;20037;-67
2023/07/29 06:36:44;;;;;;;5.32;3.05;;;;;;;;;;5047608;28;20471;-67
2023/07/29 06:39:10;;;;;;;7.22;3.33;;;;;;;;;;5038348;28;20136;-67
2023/07/29 06:41:37;;;;;;;6.72;3.15;;;;;;;;;;5047236;28;20490;-67
2023/07/29 06:44:03;;;;;;;5.28;3.13;;;;;;;;;;5019812;28;20105;-67
2023/07/29 06:46:29;;;;;;;6.68;3.40;;;;;;;;;;5037026;28;20045;-68
2023/07/29 06:48:55;;;;;;;7.85;3.40;;;;;;;;;;5023110;28;20132;-67
2023/07/29 06:51:21;;;;;;;7.43;3.47;;;;;;;;;;5048810;28;20094;-67
2023/07/29 06:53:47;;;;;;;9.98;3.30;;;;;;;;;;5045602;28;20398;-67
2023/07/29 06:56:13;;;;;;;7.32;4.30;;;;;;;;;;5041564;28;20045;-68
2023/07/29 06:58:39;;;;;;;8.35;2.35;;;;;;;;;;5035914;28;20037;-68
2023/07/29 07:01:06;;;;;;;10.23;3.47;;;;;;;;;;5038304;28;20052;-68
2023/07/29 07:03:32;;;;;;;7.00;3.47;;;;;;;;;;5039924;28;20453;-68
2023/07/29 07:05:59;;;;;;;10.98;4.07;;;;;;;;;;5047850;28;20112;-68
2023/07/29 07:08:25;;;;;;;8.02;3.70;;;;;;;;;;5026898;28;20121;-68
2023/07/29 07:10:51;;;;;;;8.75;3.67;;;;;;;;;;5047197;28;20032;-68
2023/07/29 07:13:17;;;;;;;7.03;3.17;;;;;;;;;;5046226;28;20044;-68
2023/07/29 07:15:45;;;;;;;7.07;3.67;;;;;;;;;;5043029;28;20064;-68
2023/07/29 07:18:11;;;;;;;6.93;3.42;;;;;;;;;;5040154;28;20126;-68
2023/07/29 07:20:37;;;;;;;7.78;3.42;;;;;;;;;;5051473;28;20079;-68
2023/07/29 07:23:05;;;;;;;8.45;3.35;;;;;;;;;;5043527;28;20073;-68
2023/07/29 07:25:31;;;;;;;6.30;3.20;;;;;;;;;;5019760;28;20051;-68
2023/07/29 07:27:57;;;;;;;5.93;2.90;;;;;;;;;;5037281;28;20154;-67
2023/07/29 07:30:23;;;;;;;7.93;3.58;;;;;;;;;;5041317;28;20048;-67
2023/07/29 07:32:50;;;;;;;4.57;3.05;;;;;;;;;;5036886;28;20142;-67
2023/07/29 07:35:16;;;;;;;9.48;3.63;;;;;;;;;;5034170;28;20045;-68
2023/07/29 07:37:43;;;;;;;7.45;3.40;;;;;;;;;;5038523;28;20042;-68
2023/07/29 07:40:09;;;;;;;10.35;4.05;;;;;;;;;;5045384;28;20220;-67
2023/07/29 07:42:35;;;;;;;6.32;3.13;;;;;;;;;;5045825;28;20466;-67
2023/07/29 07:45:01;;;;;;;8.40;3.53;;;;;;;;;;5042219;28;20124;-67
2023/07/29 07:47:27;;;;;;;6.07;3.00;;;;;;;;;;5043082;28;20131;-68
2023/07/29 07:49:54;;;;;;;9.43;3.35;;;;;;;;;;5047313;28;20114;-67
2023/07/29 07:52:20;;;;;;;9.25;3.60;;;;;;;;;;5042090;28;20130;-67
2023/07/29 07:54:46;;;;;;;5.28;2.90;;;;;;;;;;5043273;28;20068;-67
2023/07/29 07:57:12;;;;;;;6.93;3.13;;;;;;;;;;5037988;28;20045;-67
2023/07/29 07:59:38;;;;;;;5.18;3.08;;;;;;;;;;5045841;28;20055;-67
2023/07/29 08:02:04;;;;;;;5.45;2.80;;;;;;;;;;5031558;28;20037;-67
2023/07/29 08:04:30;;;;;;;5.85;2.92;;;;;;;;;;5038330;28;20053;-67
2023/07/29 08:06:56;;;;;;;6.55;3.30;;;;;;;;;;5035587;28;20047;-68
2023/07/29 08:09:23;;;;;;;11.88;2.40;;;;;;;;;;5038242;28;20048;-67
2023/07/29 08:11:49;;;;;;;4.40;2.35;;;;;;;;;;5015807;28;20042;-67
2023/07/29 08:14:15;;;;;;;5.63;2.85;;;;;;;;;;5036231;28;20053;-67
2023/07/29 08:16:41;;;;;;;5.55;2.70;;;;;;;;;;5039699;28;20434;-67
2023/07/29 08:19:09;;;;;;;4.22;2.25;;;;;;;;;;5042545;28;20076;-65
2023/07/29 08:21:36;;;;;;;15.57;3.38;;;;;;;;;;5042535;28;20367;-67
2023/07/29 08:24:03;;;;;;;7.90;3.30;;;;;;;;;;5038283;28;20234;-67
2023/07/29 08:26:29;;;;;;;4.05;2.42;;;;;;;;;;5038375;28;20470;-67
2023/07/29 08:28:55;;;;;;;4.97;2.50;;;25.10;99.90;;;;;;5025133;28;20179;-67
2023/07/29 08:31:21;;;;;;;4.93;2.40;;;20.10;99.90;;;;;;5032568;28;20044;-67
2023/07/29 08:33:46;;;;;;;6.07;2.72;;;19.90;99.90;;;;;;5033817;28;20147;-67
2023/07/29 08:36:12;;;;;;;8.80;3.80;;;19.90;99.90;;;;;;5031277;28;20679;-67
2023/07/29 08:38:38;;;;;;;8.80;3.30;;;20.00;99.90;;;;;;5017405;28;20479;-67
2023/07/29 08:41:22;;;;;;;4.50;2.08;;;19.90;99.90;;;;;;5044144;28;20461;-67
2023/07/29 08:44:20;;;;;;;5.82;2.33;;;19.90;99.90;;;;;;5041576;28;20494;-67
2023/07/29 08:46:46;;;;;;;5.43;2.00;;;20.00;99.90;;;;;;5034429;28;20064;-67
2023/07/29 08:49:15;;;;;;;6.15;2.50;;;20.00;99.90;;;;;;5037556;28;20055;-67
2023/07/29 08:51:46;;;;;;;6.43;2.53;;;20.10;99.90;;;;;;5037440;28;20103;-67
2023/07/29 08:54:13;;;;;;;6.95;1.90;;;20.10;99.90;;;;;;5044961;28;20037;-67
2023/07/29 08:56:40;;;;;;;8.93;2.65;;;20.10;99.90;;;;;;5042388;28;20033;-67
2023/07/29 08:59:08;;;;;;;4.38;2.00;;;20.20;99.90;;;;;;5038927;28;20114;-67
2023/07/29 09:01:33;;;;;;;3.33;2.13;;;20.20;99.90;;;;;;5041862;28;20056;-67
2023/07/29 09:03:59;;;;;;;5.63;1.90;;;20.20;99.90;;;;;;5046864;28;20045;-67
2023/07/29 09:06:27;;;;;;;8.48;2.53;;;;;;;;;;5023808;28;20083;-67
2023/07/29 09:08:56;;;;;;;4.18;2.08;;;;;;;;;;5045762;28;20044;-67
2023/07/29 09:11:22;;;;;;;5.28;2.92;;;;;;;;;;5043055;28;20072;-67
2023/07/29 09:13:48;;;;;;;5.38;2.00;;;;;;;;;;5032955;28;20390;-67
2023/07/29 09:16:15;;;;;;;4.90;1.92;;;;;;;;;;5032235;28;20191;-67
2023/07/29 09:18:41;;;;;;;5.97;2.25;;;;;;;;;;5041379;28;20497;-67
2023/07/29 09:21:08;;;;;;;3.00;1.73;;;;;;;;;;5011843;28;20045;-67
2023/07/29 09:23:41;;;;;;;4.82;1.90;;;;;;;;;;5036358;28;20044;-67
2023/07/29 09:26:07;;;;;;;4.72;2.30;;;;;;;;;;5050472;28;20082;-67
2023/07/29 09:28:34;;;;;;;3.63;1.98;;;;;;;;;;5049017;28;20046;-67
2023/07/29 09:31:00;;;;;;;4.47;2.38;;;;;;;;;;5000109;28;20049;-67
2023/07/29 09:33:27;;;;;;;4.25;2.20;;;;;;;;;;5046577;28;20044;-67
2023/07/29 09:35:53;;;;;;;9.25;2.33;;;;;;;;;;5046812;28;20510;-67
2023/07/29 09:38:26;;;;;;;5.00;2.13;;;;;;;;;;5045525;28;20047;-67
2023/07/29 09:40:55;;;;;;;8.98;2.50;;;;;;;;;;5042692;28;20475;-67
2023/07/29 09:43:25;;;;;;;4.18;2.13;;;;;;;;;;5024329;28;20046;-67
2023/07/29 09:45:52;;;;;;;6.85;2.53;;;;;;;;;;5033048;28;20034;-67
2023/07/29 09:48:22;;;;;;;4.05;2.17;;;;;;;;;;5047770;28;20517;-67
2023/07/29 09:50:49;;;;;;;5.78;2.50;;;;;;;;;;5043567;28;20120;-67
2023/07/29 09:53:15;;;;;;;6.07;1.83;;;;;;;;;;5044426;28;20398;-67
2023/07/29 09:55:46;;;;;;;6.88;2.30;;;;;;;;;;5022330;28;20134;-67
2023/07/29 09:58:12;;;;;;;4.35;2.05;;;;;;;;;;5042115;28;20051;-68
2023/07/29 10:00:39;;;;;;;5.70;2.33;;;;;;;;;;5045946;28;20353;-67
2023/07/29 10:03:07;;;;;;;6.72;2.67;;;;;;;;;;5041098;28;20037;-68
2023/07/29 10:05:35;;;;;;;4.53;2.35;;;;;;;;;;5027626;28;20173;-67
2023/07/29 10:08:01;;;;;;;4.40;2.22;;;;;;;;;;5048552;28;20114;-67
2023/07/29 10:10:28;;;;;;;3.67;2.05;;;;;;;;;;5045675;28;20182;-67
2023/07/29 10:12:55;;;;;;;5.15;2.05;;;;;;;;;;5038142;28;20044;-67
2023/07/29 10:15:21;;;;;;;5.28;2.15;;;;;;;;;;5041726;28;20128;-67
2023/07/29 10:17:48;;;;;;;6.70;1.80;;;;;;;;;;5036212;28;20042;-67
2023/07/29 10:20:14;;;;;;;6.95;2.22;;;;;;;;;;5035127;28;20383;-67
2023/07/29 10:22:41;;;;;;;5.22;2.00;;;;;;;;;;5041407;28;20044;-67
2023/07/29 10:25:09;;;;;;;4.85;2.05;;;;;;;;;;5036747;28;20074;-67
2023/07/29 10:27:39;;;;;;;3.92;1.85;;;;;;;;;;5038438;28;20492;-67
2023/07/29 10:30:05;;;;;;;3.63;1.83;;;;;;;;;;5030142;28;20359;-67
2023/07/29 10:32:32;;;;;;;4.15;2.03;;;;;;;;;;5030419;28;20458;-66
2023/07/29 10:34:58;;;;;;;2.42;1.38;;;;;;;;;;5028131;28;20033;-66
2023/07/29 10:37:25;;;;;;;2.25;1.23;;;;;;;;;;5041049;28;20112;-66
2023/07/29 10:39:55;;;;;;;4.25;1.38;;;;;;;;;;5046665;28;20044;-66
2023/07/29 10:42:21;;;;;;;5.28;2.22;;;;;;;;;;5042865;28;20075;-64
2023/07/29 10:44:54;;;;;;;2.63;1.50;;;;;;;;;;5038911;28;20287;-65
2023/07/29 10:47:29;;;;;;;3.55;1.88;;;;;;;;;;5043922;28;20123;-66
2023/07/29 10:49:56;;;;;;;3.25;1.63;;;;;;;;;;5036280;28;20037;-65
2023/07/29 10:52:29;;;;;;;3.08;1.42;;;;;;;;;;5041305;28;20068;-65
2023/07/29 10:54:58;;;;;;;3.10;1.00;;;;;;;;;;5049578;28;20051;-65
2023/07/29 10:57:33;;;;;;;4.88;1.30;;;;;;;;;;5036747;28;20043;-65
2023/07/29 10:59:59;;;;;;;8.27;1.95;;;;;;;;;;5028941;28;20033;-66
2023/07/29 11:02:48;;;;;;;9.63;2.72;;;;;;;;;;5033968;28;20429;-64
2023/07/29 11:05:19;;;;;;;7.40;2.70;;;;;;;;;;5038709;28;20041;-64
2023/07/29 11:07:49;;;;;;;7.78;2.88;;;;;;;;;;5042400;28;20075;-64
2023/07/29 11:10:15;;;;;;;7.95;2.92;;;;;;;;;;5039439;28;20144;-64
2023/07/29 11:12:51;;;;;;;3.92;2.28;;;;;;;;;;5036482;28;20175;-64
2023/07/29 11:15:22;;;;;;;6.20;2.53;;;;;;;;;;5037857;28;20219;-64
2023/07/29 11:18:01;;;;;;;10.27;2.10;;;;;;;;;;5042414;28;20047;-64
2023/07/29 11:20:28;;;;;;;5.50;2.03;;;;;;;;;;5046247;28;20040;-64
2023/07/29 11:22:55;;;;;;;5.75;1.85;;;;;;;;;;5047237;28;20363;-64
2023/07/29 11:25:22;;;;;;;5.40;1.80;;;;;;;;;;5040069;28;20063;-64
2023/07/29 11:27:49;;;;;;;5.57;2.25;;;;;;;;;;5050241;28;20033;-64
2023/07/29 11:30:16;;;;;;;4.57;1.80;;;;;;;;;;5043755;28;20045;-64
2023/07/29 11:32:43;;;;;;;6.45;2.00;;;;;;;;;;5043430;28;20098;-64
2023/07/29 11:35:11;;;;;;;6.97;2.35;;;;;;;;;;5040870;28;20057;-65
2023/07/29 11:37:38;;;;;;;6.72;2.25;;;;;;;;;;5037435;28;20056;-65
2023/07/29 11:40:06;;;;;;;4.90;2.40;;;;;;;;;;5040304;28;20044;-64
2023/07/29 11:42:33;;;;;;;5.28;2.58;;;;;;;;;;5041522;28;20049;-64
2023/07/29 11:44:59;;;;;;;7.68;2.50;;;;;;;;;;5045007;28;20041;-64
2023/07/29 11:47:26;;;;;;;5.70;2.30;;;;;;;;;;5043035;28;20099;-64
2023/07/29 11:49:52;;;;;;;4.18;1.98;;;;;;;;;;5048483;28;20517;-64
2023/07/29 11:52:19;;;;;;;4.68;1.85;;;;;;;;;;5043210;28;20049;-66
2023/07/29 11:54:49;;;;;;;3.58;2.25;;;;;;;;;;5041218;28;20051;-67
2023/07/29 11:57:16;;;;;;;5.07;2.42;;;;;;;;;;5036273;28;20147;-66
2023/07/29 11:59:42;;;;;;;5.05;1.98;;;;;;;;;;5038682;28;20045;-66
2023/07/29 12:02:13;;;;;;;5.22;1.83;;;;;;;;;;5041785;28;20049;-70
2023/07/29 12:04:40;;;;;;;5.57;2.33;;;;;;;;;;5023078;28;20132;-65
2023/07/29 12:07:07;;;;;;;105.68;13.98;;;;;;;;;;5049102;28;20071;-66
2023/07/29 12:09:33;;;;;;;238.25;27.23;;;;;;;;;;5043928;28;20045;-66
2023/07/29 12:12:00;;;;;;;16.52;2.78;;;;;;;;;;5044987;28;20049;-61
2023/07/29 12:14:27;;;;;;;27.52;4.80;;;;;;;;;;5050266;28;20067;-65
2023/07/29 12:16:53;;;;;;;126.20;15.05;;;;;;;;;;5039632;28;20483;-69
2023/07/29 12:19:21;;;;;;;10.77;2.60;;;;;;;;;;5029878;28;20127;-69
2023/07/29 12:21:48;;;;;;;7.97;1.83;;;;;;;;;;5035444;28;20701;-63
2023/07/29 12:24:14;;;;;;;4.75;2.45;;;;;;;;;;5029429;28;20472;-67
2023/07/29 12:26:42;;;;;;;4.35;2.05;;;;;;;;;;5050751;28;20037;-67
2023/07/29 12:29:12;;;;;;;6.20;1.75;;;;;;;;;;5043279;28;20132;-66
2023/07/29 12:31:38;;;;;;;5.18;2.22;;;;;;;;;;5049386;28;20443;-66
2023/07/29 12:34:05;;;;;;;4.70;2.17;;;;;;;;;;5016782;28;20037;-66
2023/07/29 12:36:43;;;;;;;5.75;2.20;;;;;;;;;;5051683;28;20553;-66
2023/07/29 12:39:19;;;;;;;7.88;2.15;;;;;;;;;;5048599;28;20033;-66
2023/07/29 12:41:45;;;;;;;6.20;2.22;;;;;;;;;;5051789;28;20055;-66
2023/07/29 12:44:12;;;;;;;3.00;1.90;;;;;;;;;;5045260;28;20072;-66
2023/07/29 12:46:38;;;;;;;4.32;2.17;;;;;;;;;;5045237;28;20454;-66
2023/07/29 12:49:04;;;;;;;3.67;2.15;;;;;;;;;;5044266;28;20141;-66
2023/07/29 12:51:30;;;;;;;5.95;2.47;;;;;;;;;;5052417;28;20445;-66
2023/07/29 12:53:56;;;;;;;6.63;2.53;;;;;;;;;;5050082;28;20045;-66
2023/07/29 12:56:23;;;;;;;4.05;2.38;;;;;;;;;;5054543;28;20052;-66
2023/07/29 12:58:49;;;;;;;6.30;2.45;;;;;;;;;;5043564;28;20041;-66
2023/07/29 13:01:18;;;;;;;5.30;2.30;;;;;;;;;;5047965;28;20477;-66
2023/07/29 13:03:48;;;;;;;5.93;2.47;;;;;;;;;;5053101;28;20518;-66
2023/07/29 13:06:15;;;;;;;5.50;2.47;;;;;;;;;;5051302;28;20048;-66
2023/07/29 13:08:42;;;;;;;8.02;3.00;;;;;;;;;;5051647;28;20067;-66
2023/07/29 13:11:08;;;;;;;3.47;2.10;;;;;;;;;;5047029;28;20077;-66
2023/07/29 13:13:34;;;;;;;5.43;2.95;;;;;;;;;;5044269;28;20127;-66
2023/07/29 13:16:01;;;;;;;6.70;2.58;;;;;;;;;;5045629;28;20075;-66
2023/07/29 13:18:27;;;;;;;4.70;2.47;;;;;;;;;;5047041;28;20462;-66
2023/07/29 13:20:53;;;;;;;6.00;2.03;;;;;;;;;;5049075;28;20144;-66
2023/07/29 13:23:22;;;;;;;6.28;2.30;;;;;;;;;;5050253;28;20115;-66
2023/07/29 13:25:49;;;;;;;6.05;2.15;;;;;;;;;;5019343;28;20063;-66
2023/07/29 13:28:16;;;;;;;5.28;2.65;;;;;;;;;;5044757;28;20051;-66
2023/07/29 13:30:42;;;;;;;5.55;2.50;;;;;;;;;;5045501;28;20097;-66
2023/07/29 13:33:09;;;;;;;7.07;2.60;;;;;;;;;;5044703;28;20052;-66
2023/07/29 13:35:35;;;;;;;8.77;2.33;;;;;;;;;;5050461;28;20107;-66
2023/07/29 13:38:01;;;;;;;3.17;2.13;;;;;;;;;;5048565;28;20374;-66
2023/07/29 13:40:27;;;;;;;7.40;3.00;;;;;;;;;;5052899;28;20081;-66
2023/07/29 13:42:54;;;;;;;4.47;2.45;;;;;;;;;;5041879;28;20045;-66
2023/07/29 13:45:20;;;;;;;7.85;2.20;;;;;;;;;;5037696;28;20038;-66
2023/07/29 13:47:47;;;;;;;4.18;1.42;;;;;;;;;;5047909;28;20068;-66
2023/07/29 13:50:13;;;;;;;3.75;1.77;;;;;;;;;;5037833;28;20049;-66
2023/07/29 13:52:39;;;;;;;3.13;1.90;;;;;;;;;;5044398;28;20040;-66
2023/07/29 13:55:05;;;;;;;9.38;2.28;;;;;;;;;;5043772;28;20062;-66
2023/07/29 13:57:32;;;;;;;4.05;2.10;;;;;;;;;;5046144;28;20472;-66
2023/07/29 13:59:58;;;;;;;3.20;2.42;;;;;;;;;;5047964;28;20041;-66
2023/07/29 14:02:28;;;;;;;5.05;2.00;;;;;;;;;;5046278;28;20102;-66
2023/07/29 14:04:54;;;;;;;4.20;2.00;;;;;;;;;;5044756;28;20040;-66
2023/07/29 14:07:20;;;;;;;5.15;1.83;;;;;;;;;;5053021;28;20048;-66
2023/07/29 14:09:46;;;;;;;7.20;2.08;;;;;;;;;;5050404;28;20037;-66
2023/07/29 14:12:14;;;;;;;5.93;2.30;;;;;;;;;;5043431;28;20402;-66
2023/07/29 14:14:40;;;;;;;6.10;2.50;;;;;;;;;;5047143;28;20544;-66
2023/07/29 14:17:10;;;;;;;6.47;2.13;;;;;;;;;;5048327;28;20432;-66
2023/07/29 14:19:36;;;;;;;4.32;2.15;;;;;;;;;;5024435;28;20347;-66
2023/07/29 14:22:02;;;;;;;4.18;2.22;;;;;;;;;;5031364;28;20056;-66
2023/07/29 14:24:28;;;;;;;3.75;1.92;;;;;;;;;;5047407;28;20083;-66
2023/07/29 14:26:54;;;;;;;4.07;2.20;;;;;;;;;;5043396;28;20136;-66
2023/07/29 14:29:21;;;;;;;6.75;2.65;;;;;;;;;;5046268;28;20492;-66
2023/07/29 14:31:47;;;;;;;4.18;2.28;;;;;;;;;;5052622;28;20042;-66
2023/07/29 14:34:13;;;;;;;4.13;2.58;;;;;;;;;;5045577;28;20037;-66